NOZ39N EGKK-ENAL
Flight info
| Callsign | NOZ39N |
|---|---|
| Flight time | 2h 0m |
| Altitude | 37000 |
| Route | FRANE M604 GIVPO DCT LARGA DCT PENUN DCT TUMIM |
| Aircraft | B738/M-SDE2E3FGHIRWXY/LB1 |
Departure
| Time | 2026-05-05 12:58 |
|---|---|
| Airport | London Gatwick Airport (EGKK) |
Arrival
| Time | 2026-05-05 14:58 |
|---|---|
| Airport | Ålesund Airport (ENAL) |
| Time | Latitude | Longitude | Altitude | Speed | Heading |
|---|---|---|---|---|---|
| 2026-05-05 12:32 | 51.15503 | -0.16843 | 203 ft | 0 kts | 348° |
| 2026-05-05 12:43 | 51.15490 | -0.16838 | 203 ft | 4 kts | 348° |
| 2026-05-05 12:44 | 51.15469 | -0.16831 | 216 ft | 4 kts | 346° |
| 2026-05-05 12:44 | 51.15451 | -0.16817 | 216 ft | 4 kts | 274° |
| 2026-05-05 12:44 | 51.15455 | -0.16779 | 216 ft | 4 kts | 257° |
| 2026-05-05 12:44 | 51.15456 | -0.16771 | 216 ft | 1 kts | 257° |
| 2026-05-05 12:47 | 51.15456 | -0.16775 | 216 ft | 2 kts | 257° |
| 2026-05-05 12:47 | 51.15450 | -0.16812 | 216 ft | 4 kts | 257° |
| 2026-05-05 12:47 | 51.15444 | -0.16859 | 211 ft | 4 kts | 257° |
| 2026-05-05 12:48 | 51.15437 | -0.16906 | 203 ft | 5 kts | 258° |
| 2026-05-05 12:48 | 51.15430 | -0.16962 | 206 ft | 6 kts | 258° |
| 2026-05-05 12:48 | 51.15417 | -0.17057 | 213 ft | 12 kts | 258° |
| 2026-05-05 12:48 | 51.15387 | -0.17200 | 212 ft | 15 kts | 253° |
| 2026-05-05 12:49 | 51.15349 | -0.17344 | 205 ft | 14 kts | 220° |
| 2026-05-05 12:49 | 51.15296 | -0.17460 | 206 ft | 13 kts | 258° |
| 2026-05-05 12:49 | 51.15279 | -0.17602 | 203 ft | 13 kts | 258° |
| 2026-05-05 12:49 | 51.15260 | -0.17742 | 209 ft | 14 kts | 258° |
| 2026-05-05 12:50 | 51.15239 | -0.17904 | 205 ft | 16 kts | 257° |
| 2026-05-05 12:50 | 51.15212 | -0.18088 | 206 ft | 17 kts | 258° |
| 2026-05-05 12:50 | 51.15188 | -0.18280 | 213 ft | 18 kts | 258° |
| 2026-05-05 12:50 | 51.15163 | -0.18492 | 207 ft | 21 kts | 258° |
| 2026-05-05 12:51 | 51.15130 | -0.18728 | 203 ft | 23 kts | 258° |
| 2026-05-05 12:51 | 51.15094 | -0.18995 | 207 ft | 26 kts | 258° |
| 2026-05-05 12:51 | 51.15054 | -0.19284 | 213 ft | 26 kts | 257° |
| 2026-05-05 12:51 | 51.15027 | -0.19483 | 209 ft | 13 kts | 257° |
| 2026-05-05 12:52 | 51.15008 | -0.19619 | 207 ft | 12 kts | 257° |
| 2026-05-05 12:52 | 51.14989 | -0.19755 | 204 ft | 13 kts | 258° |
| 2026-05-05 12:52 | 51.14968 | -0.19910 | 208 ft | 15 kts | 258° |
| 2026-05-05 12:52 | 51.14943 | -0.20084 | 203 ft | 17 kts | 257° |
| 2026-05-05 12:53 | 51.14916 | -0.20285 | 203 ft | 20 kts | 257° |
| 2026-05-05 12:53 | 51.14887 | -0.20503 | 203 ft | 21 kts | 258° |
| 2026-05-05 12:53 | 51.14856 | -0.20727 | 210 ft | 20 kts | 257° |
| 2026-05-05 12:53 | 51.14824 | -0.20945 | 212 ft | 20 kts | 257° |
| 2026-05-05 12:54 | 51.14759 | -0.21353 | 204 ft | 17 kts | 249° |
| 2026-05-05 12:54 | 51.14696 | -0.21396 | 206 ft | 4 kts | 164° |
| 2026-05-05 12:54 | 51.14668 | -0.21367 | 206 ft | 6 kts | 139° |
| 2026-05-05 12:55 | 51.14648 | -0.21345 | 210 ft | 0 kts | 153° |
| 2026-05-05 12:55 | 51.14639 | -0.21339 | 206 ft | 5 kts | 156° |
| 2026-05-05 12:55 | 51.14561 | -0.21296 | 203 ft | 17 kts | 146° |
| 2026-05-05 12:55 | 51.14525 | -0.21131 | 206 ft | 2 kts | 75° |
| 2026-05-05 12:57 | 51.14544 | -0.21001 | 213 ft | 40 kts | 78° |
| 2026-05-05 12:57 | 51.14650 | -0.20223 | 210 ft | 104 kts | 77° |
| 2026-05-05 12:57 | 51.14842 | -0.18791 | 226 ft | 154 kts | 78° |
| 2026-05-05 12:57 | 51.15071 | -0.17023 | 649 ft | 168 kts | 78° |
| 2026-05-05 12:58 | 51.15318 | -0.15206 | 1424 ft | 173 kts | 74° |
| 2026-05-05 12:58 | 51.15601 | -0.13219 | 1864 ft | 195 kts | 73° |
| 2026-05-05 12:58 | 51.15915 | -0.11007 | 2128 ft | 218 kts | 74° |
| 2026-05-05 12:58 | 51.16281 | -0.08490 | 2347 ft | 245 kts | 75° |
| 2026-05-05 12:59 | 51.16650 | -0.05806 | 3071 ft | 249 kts | 75° |
| 2026-05-05 12:59 | 51.16951 | -0.03069 | 3798 ft | 253 kts | 85° |
| 2026-05-05 12:59 | 51.16904 | -0.00278 | 4564 ft | 253 kts | 91° |
| 2026-05-05 13:00 | 51.16752 | 0.05383 | 5044 ft | 262 kts | 91° |
| 2026-05-05 13:00 | 51.16690 | 0.08266 | 5074 ft | 259 kts | 90° |
| 2026-05-05 13:01 | 51.16764 | 0.16859 | 6246 ft | 265 kts | 68° |
| 2026-05-05 13:01 | 51.17778 | 0.19316 | 6952 ft | 267 kts | 51° |
| 2026-05-05 13:01 | 51.18949 | 0.21667 | 7643 ft | 273 kts | 51° |
| 2026-05-05 13:01 | 51.20134 | 0.24060 | 8438 ft | 276 kts | 52° |
| 2026-05-05 13:02 | 51.21323 | 0.26489 | 9207 ft | 280 kts | 52° |
| 2026-05-05 13:02 | 51.22528 | 0.28976 | 9945 ft | 286 kts | 52° |
| 2026-05-05 13:02 | 51.23741 | 0.31500 | 10743 ft | 287 kts | 52° |
| 2026-05-05 13:02 | 51.24951 | 0.34037 | 11544 ft | 289 kts | 52° |
| 2026-05-05 13:03 | 51.26175 | 0.36612 | 12305 ft | 292 kts | 53° |
| 2026-05-05 13:03 | 51.27396 | 0.39188 | 13246 ft | 291 kts | 53° |
| 2026-05-05 13:03 | 51.28613 | 0.41761 | 14107 ft | 292 kts | 53° |
| 2026-05-05 13:03 | 51.29855 | 0.44394 | 14736 ft | 298 kts | 53° |
| 2026-05-05 13:04 | 51.31103 | 0.47042 | 15259 ft | 300 kts | 53° |
| 2026-05-05 13:04 | 51.32415 | 0.49785 | 15174 ft | 315 kts | 50° |
| 2026-05-05 13:04 | 51.34087 | 0.51979 | 15017 ft | 310 kts | 29° |
| 2026-05-05 13:04 | 51.36046 | 0.53485 | 15095 ft | 319 kts | 25° |
| 2026-05-05 13:05 | 51.38128 | 0.55019 | 15317 ft | 339 kts | 25° |
| 2026-05-05 13:05 | 51.40304 | 0.56635 | 15881 ft | 348 kts | 26° |
| 2026-05-05 13:05 | 51.42516 | 0.58304 | 16520 ft | 355 kts | 26° |
| 2026-05-05 13:05 | 51.44762 | 0.60022 | 17237 ft | 359 kts | 26° |
| 2026-05-05 13:06 | 51.47023 | 0.61767 | 18000 ft | 363 kts | 26° |
| 2026-05-05 13:06 | 51.49310 | 0.63541 | 18631 ft | 367 kts | 26° |
| 2026-05-05 13:06 | 51.51626 | 0.65342 | 19248 ft | 371 kts | 26° |
| 2026-05-05 13:06 | 51.53965 | 0.67163 | 19837 ft | 376 kts | 26° |
| 2026-05-05 13:07 | 51.56332 | 0.69006 | 20428 ft | 380 kts | 26° |
| 2026-05-05 13:07 | 51.58779 | 0.70566 | 20946 ft | 387 kts | 16° |
| 2026-05-05 13:07 | 51.61450 | 0.71611 | 21468 ft | 393 kts | 13° |
| 2026-05-05 13:07 | 51.64135 | 0.72559 | 22087 ft | 396 kts | 12° |
| 2026-05-05 13:08 | 51.66799 | 0.73509 | 22658 ft | 400 kts | 13° |
| 2026-05-05 13:08 | 51.69565 | 0.74534 | 23087 ft | 404 kts | 13° |
| 2026-05-05 13:08 | 51.72262 | 0.75557 | 23643 ft | 404 kts | 13° |
| 2026-05-05 13:08 | 51.75058 | 0.76630 | 24087 ft | 409 kts | 14° |
| 2026-05-05 13:09 | 51.77834 | 0.77705 | 24561 ft | 412 kts | 13° |
| 2026-05-05 13:09 | 51.80581 | 0.79064 | 24996 ft | 416 kts | 23° |
| 2026-05-05 13:09 | 51.83167 | 0.81226 | 25330 ft | 422 kts | 33° |
| 2026-05-05 13:09 | 51.85557 | 0.84032 | 25725 ft | 426 kts | 40° |
| 2026-05-05 13:10 | 51.87787 | 0.87101 | 26190 ft | 428 kts | 43° |
| 2026-05-05 13:10 | 51.89991 | 0.90374 | 26625 ft | 431 kts | 44° |
| 2026-05-05 13:10 | 51.92188 | 0.93701 | 27027 ft | 435 kts | 44° |
| 2026-05-05 13:10 | 51.94420 | 0.97057 | 27420 ft | 439 kts | 44° |
| 2026-05-05 13:11 | 51.96672 | 1.00405 | 27938 ft | 439 kts | 44° |
| 2026-05-05 13:11 | 51.98933 | 1.03734 | 28443 ft | 440 kts | 43° |
| 2026-05-05 13:11 | 52.01212 | 1.07079 | 28770 ft | 445 kts | 43° |
| 2026-05-05 13:11 | 52.03519 | 1.10469 | 29097 ft | 449 kts | 43° |
| 2026-05-05 13:12 | 52.05870 | 1.13851 | 29295 ft | 457 kts | 40° |
| 2026-05-05 13:12 | 52.08431 | 1.17008 | 29467 ft | 464 kts | 37° |
| 2026-05-05 13:12 | 52.11057 | 1.20072 | 29907 ft | 465 kts | 36° |
| 2026-05-05 13:12 | 52.13661 | 1.23222 | 30283 ft | 466 kts | 39° |
| 2026-05-05 13:13 | 52.16181 | 1.26564 | 30609 ft | 468 kts | 41° |
| 2026-05-05 13:13 | 52.18665 | 1.29993 | 30916 ft | 470 kts | 41° |
| 2026-05-05 13:13 | 52.21157 | 1.33459 | 31231 ft | 472 kts | 41° |
| 2026-05-05 13:13 | 52.23662 | 1.36921 | 31558 ft | 472 kts | 40° |
| 2026-05-05 13:14 | 52.26173 | 1.40363 | 32012 ft | 470 kts | 40° |
| 2026-05-05 13:14 | 52.28681 | 1.43782 | 32500 ft | 468 kts | 40° |
| 2026-05-05 13:14 | 52.31173 | 1.47179 | 32937 ft | 466 kts | 40° |
| 2026-05-05 13:14 | 52.33649 | 1.50588 | 33337 ft | 465 kts | 41° |
| 2026-05-05 13:15 | 52.35986 | 1.54236 | 33767 ft | 463 kts | 45° |
| 2026-05-05 13:15 | 52.38223 | 1.58010 | 34140 ft | 462 kts | 46° |
| 2026-05-05 13:15 | 52.40429 | 1.61827 | 34436 ft | 462 kts | 47° |
| 2026-05-05 13:15 | 52.42636 | 1.65649 | 34708 ft | 462 kts | 46° |
| 2026-05-05 13:16 | 52.44854 | 1.69463 | 35002 ft | 462 kts | 46° |
| 2026-05-05 13:16 | 52.47076 | 1.73252 | 35315 ft | 461 kts | 46° |
| 2026-05-05 13:16 | 52.49301 | 1.77034 | 35610 ft | 460 kts | 46° |
| 2026-05-05 13:16 | 52.51523 | 1.80807 | 35890 ft | 460 kts | 46° |
| 2026-05-05 13:17 | 52.53746 | 1.84586 | 36173 ft | 460 kts | 46° |
| 2026-05-05 13:17 | 52.55963 | 1.88364 | 36458 ft | 459 kts | 46° |
| 2026-05-05 13:17 | 52.58176 | 1.92143 | 36722 ft | 459 kts | 46° |
| 2026-05-05 13:17 | 52.60390 | 1.95920 | 36971 ft | 459 kts | 46° |
| 2026-05-05 13:18 | 52.64853 | 2.03540 | 36992 ft | 464 kts | 46° |
| 2026-05-05 13:18 | 52.69325 | 2.11202 | 36987 ft | 462 kts | 46° |
| 2026-05-05 13:19 | 52.73742 | 2.18797 | 36986 ft | 457 kts | 46° |
| 2026-05-05 13:19 | 52.78133 | 2.26373 | 36997 ft | 456 kts | 46° |
| 2026-05-05 13:20 | 52.82481 | 2.33898 | 36993 ft | 456 kts | 46° |
| 2026-05-05 13:20 | 52.86147 | 2.40260 | 36993 ft | 455 kts | 46° |
| 2026-05-05 13:21 | 52.91220 | 2.49092 | 36991 ft | 456 kts | 46° |
| 2026-05-05 13:21 | 52.94880 | 2.55481 | 36987 ft | 456 kts | 46° |
| 2026-05-05 13:22 | 52.99532 | 2.62620 | 37000 ft | 456 kts | 33° |
| 2026-05-05 13:22 | 53.05105 | 2.67595 | 37002 ft | 456 kts | 24° |
| 2026-05-05 13:23 | 53.10836 | 2.72166 | 36991 ft | 457 kts | 24° |
| 2026-05-05 13:23 | 53.16519 | 2.76817 | 36993 ft | 459 kts | 25° |
| 2026-05-05 13:24 | 53.22236 | 2.81580 | 37004 ft | 460 kts | 25° |
| 2026-05-05 13:24 | 53.27962 | 2.86363 | 36992 ft | 460 kts | 25° |
| 2026-05-05 13:25 | 53.33724 | 2.91003 | 36990 ft | 460 kts | 23° |
| 2026-05-05 13:25 | 53.39522 | 2.95496 | 36990 ft | 459 kts | 23° |
| 2026-05-05 13:26 | 53.45307 | 2.99997 | 36991 ft | 458 kts | 24° |
| 2026-05-05 13:26 | 53.51069 | 3.04523 | 36990 ft | 457 kts | 24° |
| 2026-05-05 13:27 | 53.56817 | 3.09066 | 36990 ft | 456 kts | 24° |
| 2026-05-05 13:27 | 53.62553 | 3.13616 | 36992 ft | 455 kts | 24° |
| 2026-05-05 13:28 | 53.68279 | 3.18170 | 37000 ft | 455 kts | 24° |
| 2026-05-05 13:28 | 53.74000 | 3.22734 | 37005 ft | 455 kts | 24° |
| 2026-05-05 13:29 | 53.79716 | 3.27306 | 36997 ft | 454 kts | 24° |
| 2026-05-05 13:29 | 53.85429 | 3.31891 | 36997 ft | 454 kts | 24° |
| 2026-05-05 13:30 | 53.91133 | 3.36482 | 36998 ft | 454 kts | 24° |
| 2026-05-05 13:30 | 53.96835 | 3.41086 | 37012 ft | 454 kts | 24° |
| 2026-05-05 13:31 | 54.02535 | 3.45702 | 37006 ft | 454 kts | 24° |
| 2026-05-05 13:31 | 54.08227 | 3.50326 | 36996 ft | 453 kts | 24° |
| 2026-05-05 13:32 | 54.13914 | 3.54959 | 36993 ft | 453 kts | 24° |
| 2026-05-05 13:32 | 54.19593 | 3.59601 | 37020 ft | 452 kts | 24° |
| 2026-05-05 13:33 | 54.25266 | 3.64253 | 36996 ft | 453 kts | 24° |
| 2026-05-05 13:33 | 54.30944 | 3.68922 | 37002 ft | 452 kts | 24° |
| 2026-05-05 13:34 | 54.36617 | 3.73601 | 36995 ft | 452 kts | 24° |
| 2026-05-05 13:34 | 54.42284 | 3.78291 | 37002 ft | 452 kts | 24° |
| 2026-05-05 13:35 | 54.47955 | 3.82997 | 36995 ft | 453 kts | 23° |
| 2026-05-05 13:35 | 54.53630 | 3.87722 | 36999 ft | 453 kts | 23° |
| 2026-05-05 13:36 | 54.59310 | 3.92466 | 36999 ft | 454 kts | 23° |
| 2026-05-05 13:36 | 54.64953 | 3.97194 | 36998 ft | 454 kts | 23° |
| 2026-05-05 13:37 | 54.70645 | 4.01977 | 37006 ft | 455 kts | 23° |
| 2026-05-05 13:37 | 54.76343 | 4.06782 | 36999 ft | 456 kts | 23° |
| 2026-05-05 13:38 | 54.82050 | 4.11607 | 36998 ft | 456 kts | 23° |
| 2026-05-05 13:38 | 54.87887 | 4.15822 | 36988 ft | 452 kts | 10° |
| 2026-05-05 13:39 | 54.94047 | 4.17716 | 37014 ft | 449 kts | 5° |
| 2026-05-05 13:39 | 55.00226 | 4.19368 | 37001 ft | 450 kts | 5° |
| 2026-05-05 13:40 | 55.06411 | 4.21082 | 36990 ft | 450 kts | 5° |
| 2026-05-05 13:40 | 55.12590 | 4.22855 | 37000 ft | 450 kts | 6° |
| 2026-05-05 13:41 | 55.18767 | 4.24653 | 36989 ft | 450 kts | 6° |
| 2026-05-05 13:41 | 55.24943 | 4.26459 | 36995 ft | 450 kts | 5° |
| 2026-05-05 13:42 | 55.31119 | 4.28270 | 36990 ft | 450 kts | 5° |
| 2026-05-05 13:42 | 55.37295 | 4.30085 | 36991 ft | 450 kts | 5° |
| 2026-05-05 13:43 | 55.43462 | 4.31902 | 36992 ft | 449 kts | 5° |
| 2026-05-05 13:43 | 55.49633 | 4.33726 | 36994 ft | 450 kts | 5° |
| 2026-05-05 13:44 | 55.55800 | 4.35556 | 36992 ft | 449 kts | 5° |
| 2026-05-05 13:44 | 55.61968 | 4.37391 | 36991 ft | 449 kts | 5° |
| 2026-05-05 13:45 | 55.68129 | 4.39230 | 36991 ft | 449 kts | 5° |
| 2026-05-05 13:45 | 55.74285 | 4.41074 | 36994 ft | 449 kts | 5° |
| 2026-05-05 13:46 | 55.80442 | 4.42923 | 36989 ft | 449 kts | 5° |
| 2026-05-05 13:46 | 55.86590 | 4.44776 | 36989 ft | 448 kts | 5° |
| 2026-05-05 13:47 | 55.92739 | 4.46635 | 36994 ft | 448 kts | 5° |
| 2026-05-05 13:47 | 55.98883 | 4.48498 | 36994 ft | 448 kts | 5° |
| 2026-05-05 13:48 | 56.05025 | 4.50367 | 36993 ft | 448 kts | 5° |
| 2026-05-05 13:48 | 56.11167 | 4.52242 | 36986 ft | 448 kts | 5° |
| 2026-05-05 13:49 | 56.17312 | 4.54124 | 36991 ft | 448 kts | 5° |
| 2026-05-05 13:49 | 56.23410 | 4.55999 | 37021 ft | 448 kts | 5° |
| 2026-05-05 13:50 | 56.29597 | 4.57905 | 36997 ft | 448 kts | 5° |
| 2026-05-05 13:50 | 56.35746 | 4.59807 | 36993 ft | 448 kts | 5° |
| 2026-05-05 13:51 | 56.41853 | 4.61702 | 37002 ft | 448 kts | 5° |
| 2026-05-05 13:51 | 56.48036 | 4.63627 | 37007 ft | 448 kts | 5° |
| 2026-05-05 13:52 | 56.54150 | 4.65536 | 37020 ft | 449 kts | 5° |
| 2026-05-05 13:52 | 56.60348 | 4.67478 | 37007 ft | 449 kts | 5° |
| 2026-05-05 13:53 | 56.66508 | 4.69416 | 37023 ft | 449 kts | 5° |
| 2026-05-05 13:53 | 56.72661 | 4.71357 | 37025 ft | 449 kts | 5° |
| 2026-05-05 13:54 | 56.78816 | 4.73305 | 37023 ft | 449 kts | 4° |
| 2026-05-05 13:54 | 56.84938 | 4.75249 | 37016 ft | 449 kts | 4° |
| 2026-05-05 13:55 | 56.91092 | 4.77211 | 37030 ft | 449 kts | 4° |
| 2026-05-05 13:55 | 56.97246 | 4.79178 | 37024 ft | 448 kts | 4° |
| 2026-05-05 13:56 | 57.03389 | 4.81149 | 37062 ft | 448 kts | 4° |
| 2026-05-05 13:56 | 57.09532 | 4.83125 | 37038 ft | 448 kts | 4° |
| 2026-05-05 13:57 | 57.15680 | 4.84761 | 37028 ft | 445 kts | 0° |
| 2026-05-05 13:57 | 57.21825 | 4.85967 | 37030 ft | 444 kts | 0° |
| 2026-05-05 13:58 | 57.27965 | 4.87152 | 37029 ft | 443 kts | 0° |
| 2026-05-05 13:58 | 57.34100 | 4.88392 | 37035 ft | 444 kts | 0° |
| 2026-05-05 13:59 | 57.43306 | 4.90311 | 37033 ft | 443 kts | 0° |
| 2026-05-05 14:00 | 57.51465 | 4.92029 | 37033 ft | 443 kts | 0° |
| 2026-05-05 14:00 | 57.58628 | 4.93542 | 37051 ft | 444 kts | 0° |
| 2026-05-05 14:01 | 57.64766 | 4.94842 | 37043 ft | 444 kts | 0° |
| 2026-05-05 14:01 | 57.70907 | 4.96147 | 37033 ft | 444 kts | 0° |
| 2026-05-05 14:02 | 57.77047 | 4.97458 | 37037 ft | 444 kts | 0° |
| 2026-05-05 14:02 | 57.83188 | 4.98772 | 37074 ft | 444 kts | 360° |
| 2026-05-05 14:03 | 57.89341 | 5.00093 | 37043 ft | 445 kts | 360° |
| 2026-05-05 14:03 | 57.95491 | 5.01419 | 37035 ft | 445 kts | 360° |
| 2026-05-05 14:04 | 58.01639 | 5.02749 | 37035 ft | 445 kts | 360° |
| 2026-05-05 14:04 | 58.07791 | 5.04084 | 37035 ft | 445 kts | 360° |
| 2026-05-05 14:05 | 58.13939 | 5.05423 | 37039 ft | 446 kts | 360° |
| 2026-05-05 14:05 | 58.20094 | 5.06768 | 37041 ft | 445 kts | 360° |
| 2026-05-05 14:06 | 58.26211 | 5.08109 | 37034 ft | 445 kts | 360° |
| 2026-05-05 14:06 | 58.32366 | 5.09464 | 37037 ft | 445 kts | 360° |
| 2026-05-05 14:07 | 58.38520 | 5.10824 | 37071 ft | 445 kts | 0° |
| 2026-05-05 14:07 | 58.44680 | 5.12188 | 37049 ft | 446 kts | 0° |
| 2026-05-05 14:08 | 58.49845 | 5.13336 | 37033 ft | 446 kts | 0° |
| 2026-05-05 14:08 | 58.55968 | 5.14702 | 37037 ft | 446 kts | 0° |
| 2026-05-05 14:09 | 58.62135 | 5.16083 | 37033 ft | 446 kts | 0° |
| 2026-05-05 14:09 | 58.68302 | 5.17468 | 37033 ft | 446 kts | 0° |
| 2026-05-05 14:10 | 58.74467 | 5.18858 | 37027 ft | 446 kts | 0° |
| 2026-05-05 14:10 | 58.80632 | 5.20253 | 37027 ft | 446 kts | 0° |
| 2026-05-05 14:11 | 58.86800 | 5.21654 | 37028 ft | 446 kts | 0° |
| 2026-05-05 14:11 | 58.92968 | 5.23059 | 37077 ft | 446 kts | 0° |
| 2026-05-05 14:12 | 58.99142 | 5.24470 | 37034 ft | 447 kts | 0° |
| 2026-05-05 14:12 | 59.05316 | 5.25888 | 37024 ft | 447 kts | 0° |
| 2026-05-05 14:13 | 59.11491 | 5.27310 | 37023 ft | 446 kts | 0° |
| 2026-05-05 14:13 | 59.17658 | 5.28736 | 37024 ft | 446 kts | 0° |
| 2026-05-05 14:14 | 59.23826 | 5.30167 | 37040 ft | 447 kts | 0° |
| 2026-05-05 14:14 | 59.29993 | 5.31604 | 37029 ft | 446 kts | 0° |
| 2026-05-05 14:15 | 59.36160 | 5.33046 | 37025 ft | 446 kts | 0° |
| 2026-05-05 14:15 | 59.42323 | 5.34491 | 37023 ft | 446 kts | 0° |
| 2026-05-05 14:16 | 59.48477 | 5.35942 | 37029 ft | 445 kts | 0° |
| 2026-05-05 14:16 | 59.54642 | 5.37396 | 37026 ft | 447 kts | 360° |
| 2026-05-05 14:17 | 59.60812 | 5.38859 | 37020 ft | 447 kts | 360° |
| 2026-05-05 14:17 | 59.66989 | 5.40330 | 37007 ft | 447 kts | 360° |
| 2026-05-05 14:18 | 59.73172 | 5.41808 | 37016 ft | 447 kts | 360° |
| 2026-05-05 14:18 | 59.79351 | 5.43291 | 37057 ft | 448 kts | 360° |
| 2026-05-05 14:19 | 59.85544 | 5.44780 | 37024 ft | 448 kts | 360° |
| 2026-05-05 14:19 | 59.91745 | 5.46279 | 37023 ft | 449 kts | 360° |
| 2026-05-05 14:20 | 59.97941 | 5.47783 | 37014 ft | 449 kts | 360° |
| 2026-05-05 14:20 | 60.04102 | 5.49283 | 37020 ft | 449 kts | 360° |
| 2026-05-05 14:21 | 60.10323 | 5.50802 | 37000 ft | 451 kts | 360° |
| 2026-05-05 14:21 | 60.16550 | 5.52330 | 36998 ft | 451 kts | 360° |
| 2026-05-05 14:22 | 60.22785 | 5.53866 | 36998 ft | 451 kts | 360° |
| 2026-05-05 14:22 | 60.29012 | 5.55408 | 37001 ft | 451 kts | 360° |
| 2026-05-05 14:23 | 60.35238 | 5.56951 | 37041 ft | 451 kts | 0° |
| 2026-05-05 14:23 | 60.41470 | 5.58506 | 36994 ft | 451 kts | 0° |
| 2026-05-05 14:24 | 60.47697 | 5.60066 | 36987 ft | 450 kts | 0° |
| 2026-05-05 14:24 | 60.53901 | 5.61613 | 36979 ft | 448 kts | 0° |
| 2026-05-05 14:25 | 60.57005 | 5.62394 | 36681 ft | 452 kts | 0° |
| 2026-05-05 14:25 | 60.60122 | 5.63181 | 36217 ft | 450 kts | 360° |
| 2026-05-05 14:25 | 60.63221 | 5.63969 | 35736 ft | 448 kts | 359° |
| 2026-05-05 14:25 | 60.66297 | 5.64754 | 35367 ft | 444 kts | 360° |
| 2026-05-05 14:26 | 60.69350 | 5.65533 | 34938 ft | 441 kts | 359° |
| 2026-05-05 14:26 | 60.72384 | 5.66307 | 34514 ft | 437 kts | 359° |
| 2026-05-05 14:26 | 60.75393 | 5.67075 | 34090 ft | 434 kts | 359° |
| 2026-05-05 14:26 | 60.78380 | 5.67835 | 33622 ft | 430 kts | 358° |
| 2026-05-05 14:27 | 60.81334 | 5.68586 | 33199 ft | 426 kts | 358° |
| 2026-05-05 14:27 | 60.84262 | 5.69340 | 32757 ft | 422 kts | 358° |
| 2026-05-05 14:27 | 60.87165 | 5.70091 | 32355 ft | 418 kts | 357° |
| 2026-05-05 14:27 | 60.90037 | 5.70832 | 31951 ft | 414 kts | 357° |
| 2026-05-05 14:28 | 60.92881 | 5.71566 | 31623 ft | 410 kts | 358° |
| 2026-05-05 14:28 | 60.95702 | 5.72293 | 31235 ft | 407 kts | 358° |
| 2026-05-05 14:28 | 60.98504 | 5.73015 | 30819 ft | 404 kts | 357° |
| 2026-05-05 14:28 | 61.01285 | 5.73735 | 30424 ft | 401 kts | 357° |
| 2026-05-05 14:29 | 61.04042 | 5.74450 | 30048 ft | 398 kts | 357° |
| 2026-05-05 14:29 | 61.06779 | 5.75159 | 29594 ft | 395 kts | 357° |
| 2026-05-05 14:29 | 61.09485 | 5.75866 | 29189 ft | 390 kts | 357° |
| 2026-05-05 14:29 | 61.12162 | 5.76565 | 28768 ft | 385 kts | 357° |
| 2026-05-05 14:30 | 61.14804 | 5.77257 | 28403 ft | 380 kts | 357° |
| 2026-05-05 14:30 | 61.17420 | 5.77939 | 28003 ft | 379 kts | 356° |
| 2026-05-05 14:30 | 61.20033 | 5.78619 | 27586 ft | 376 kts | 357° |
| 2026-05-05 14:30 | 61.22610 | 5.79295 | 27281 ft | 371 kts | 358° |
| 2026-05-05 14:31 | 61.25165 | 5.79967 | 26840 ft | 368 kts | 358° |
| 2026-05-05 14:31 | 61.27692 | 5.80633 | 26461 ft | 364 kts | 358° |
| 2026-05-05 14:31 | 61.30188 | 5.81292 | 26087 ft | 360 kts | 358° |
| 2026-05-05 14:31 | 61.32658 | 5.81945 | 25733 ft | 356 kts | 358° |
| 2026-05-05 14:32 | 61.35075 | 5.82583 | 25367 ft | 353 kts | 358° |
| 2026-05-05 14:32 | 61.37528 | 5.83232 | 25011 ft | 349 kts | 358° |
| 2026-05-05 14:32 | 61.39899 | 5.83865 | 24666 ft | 346 kts | 358° |
| 2026-05-05 14:32 | 61.42276 | 5.84495 | 24310 ft | 343 kts | 358° |
| 2026-05-05 14:33 | 61.44633 | 5.85120 | 23987 ft | 340 kts | 358° |
| 2026-05-05 14:33 | 61.46975 | 5.85742 | 23633 ft | 338 kts | 358° |
| 2026-05-05 14:33 | 61.49298 | 5.86361 | 23255 ft | 335 kts | 358° |
| 2026-05-05 14:33 | 61.51598 | 5.86976 | 22902 ft | 331 kts | 358° |
| 2026-05-05 14:34 | 61.53879 | 5.87596 | 22540 ft | 328 kts | 359° |
| 2026-05-05 14:34 | 61.56129 | 5.88202 | 22203 ft | 324 kts | 358° |
| 2026-05-05 14:34 | 61.58327 | 5.88792 | 21871 ft | 314 kts | 358° |
| 2026-05-05 14:34 | 61.60453 | 5.89366 | 21563 ft | 302 kts | 358° |
| 2026-05-05 14:35 | 61.62498 | 5.89918 | 21283 ft | 292 kts | 358° |
| 2026-05-05 14:35 | 61.64484 | 5.90449 | 20969 ft | 284 kts | 358° |
| 2026-05-05 14:35 | 61.66416 | 5.90967 | 20658 ft | 277 kts | 358° |
| 2026-05-05 14:35 | 61.68300 | 5.91468 | 20376 ft | 268 kts | 355° |
| 2026-05-05 14:36 | 61.70119 | 5.91611 | 20110 ft | 263 kts | 357° |
| 2026-05-05 14:36 | 61.71973 | 5.92298 | 19880 ft | 276 kts | 3° |
| 2026-05-05 14:36 | 61.73830 | 5.93697 | 19603 ft | 289 kts | 17° |
| 2026-05-05 14:36 | 61.75639 | 5.95523 | 19334 ft | 286 kts | 16° |
| 2026-05-05 14:37 | 61.77428 | 5.97276 | 19069 ft | 282 kts | 16° |
| 2026-05-05 14:37 | 61.79204 | 5.98993 | 18850 ft | 280 kts | 17° |
| 2026-05-05 14:37 | 61.80972 | 6.00690 | 18616 ft | 279 kts | 17° |
| 2026-05-05 14:37 | 61.82729 | 6.02380 | 18414 ft | 276 kts | 17° |
| 2026-05-05 14:38 | 61.84483 | 6.04064 | 18116 ft | 278 kts | 18° |
| 2026-05-05 14:38 | 61.86236 | 6.05749 | 17808 ft | 276 kts | 18° |
| 2026-05-05 14:38 | 61.87976 | 6.07425 | 17510 ft | 274 kts | 18° |
| 2026-05-05 14:38 | 61.89705 | 6.09090 | 17253 ft | 272 kts | 18° |
| 2026-05-05 14:39 | 61.91456 | 6.10773 | 16950 ft | 286 kts | 18° |
| 2026-05-05 14:39 | 61.93313 | 6.12559 | 16642 ft | 297 kts | 19° |
| 2026-05-05 14:39 | 61.95204 | 6.14391 | 16288 ft | 300 kts | 19° |
| 2026-05-05 14:39 | 61.97110 | 6.16242 | 15952 ft | 302 kts | 19° |
| 2026-05-05 14:40 | 61.99020 | 6.18099 | 15635 ft | 300 kts | 20° |
| 2026-05-05 14:40 | 62.00911 | 6.19940 | 15309 ft | 298 kts | 20° |
| 2026-05-05 14:40 | 62.02799 | 6.21780 | 14901 ft | 299 kts | 20° |
| 2026-05-05 14:40 | 62.04684 | 6.23621 | 14573 ft | 298 kts | 20° |
| 2026-05-05 14:41 | 62.06573 | 6.25469 | 14206 ft | 298 kts | 20° |
| 2026-05-05 14:41 | 62.08448 | 6.27307 | 13908 ft | 296 kts | 21° |
| 2026-05-05 14:41 | 62.10317 | 6.29141 | 13551 ft | 295 kts | 21° |
| 2026-05-05 14:41 | 62.12178 | 6.30967 | 13226 ft | 293 kts | 21° |
| 2026-05-05 14:42 | 62.14030 | 6.32793 | 12888 ft | 292 kts | 21° |
| 2026-05-05 14:42 | 62.15869 | 6.34608 | 12568 ft | 291 kts | 21° |
| 2026-05-05 14:42 | 62.17699 | 6.36415 | 12258 ft | 288 kts | 21° |
| 2026-05-05 14:42 | 62.19508 | 6.38204 | 11946 ft | 284 kts | 21° |
| 2026-05-05 14:43 | 62.21273 | 6.39953 | 11622 ft | 275 kts | 21° |
| 2026-05-05 14:43 | 62.22972 | 6.41638 | 11352 ft | 264 kts | 21° |
| 2026-05-05 14:43 | 62.24625 | 6.43278 | 11076 ft | 259 kts | 21° |
| 2026-05-05 14:43 | 62.26241 | 6.44885 | 10775 ft | 253 kts | 21° |
| 2026-05-05 14:44 | 62.27813 | 6.46446 | 10513 ft | 245 kts | 20° |
| 2026-05-05 14:44 | 62.29345 | 6.47968 | 10279 ft | 240 kts | 21° |
| 2026-05-05 14:44 | 62.30846 | 6.49465 | 10032 ft | 234 kts | 20° |
| 2026-05-05 14:44 | 62.32301 | 6.50916 | 9940 ft | 227 kts | 20° |
| 2026-05-05 14:45 | 62.33716 | 6.52324 | 9749 ft | 230 kts | 20° |
| 2026-05-05 14:45 | 62.35205 | 6.53796 | 9493 ft | 236 kts | 20° |
| 2026-05-05 14:45 | 62.36722 | 6.55234 | 9133 ft | 239 kts | 19° |
| 2026-05-05 14:45 | 62.38232 | 6.56652 | 8909 ft | 242 kts | 20° |
| 2026-05-05 14:46 | 62.39778 | 6.58108 | 8611 ft | 240 kts | 20° |
| 2026-05-05 14:46 | 62.41290 | 6.59540 | 8343 ft | 235 kts | 19° |
| 2026-05-05 14:46 | 62.42766 | 6.60940 | 8086 ft | 229 kts | 20° |
| 2026-05-05 14:46 | 62.44209 | 6.62310 | 7836 ft | 223 kts | 19° |
| 2026-05-05 14:47 | 62.45605 | 6.63663 | 7620 ft | 217 kts | 22° |
| 2026-05-05 14:47 | 62.46955 | 6.65119 | 7426 ft | 217 kts | 22° |
| 2026-05-05 14:47 | 62.48299 | 6.66595 | 7240 ft | 217 kts | 22° |
| 2026-05-05 14:47 | 62.49653 | 6.68077 | 7020 ft | 218 kts | 23° |
| 2026-05-05 14:48 | 62.50983 | 6.69533 | 6825 ft | 210 kts | 21° |
| 2026-05-05 14:48 | 62.52271 | 6.70940 | 6599 ft | 204 kts | 21° |
| 2026-05-05 14:48 | 62.53529 | 6.72314 | 6457 ft | 202 kts | 22° |
| 2026-05-05 14:48 | 62.54799 | 6.73695 | 6333 ft | 203 kts | 23° |
| 2026-05-05 14:49 | 62.56067 | 6.75077 | 6279 ft | 208 kts | 22° |
| 2026-05-05 14:49 | 62.57395 | 6.76375 | 6184 ft | 209 kts | 8° |
| 2026-05-05 14:49 | 62.58754 | 6.76022 | 6088 ft | 196 kts | 328° |
| 2026-05-05 14:49 | 62.60008 | 6.74696 | 5801 ft | 203 kts | 329° |
| 2026-05-05 14:50 | 62.61275 | 6.73430 | 5617 ft | 199 kts | 330° |
| 2026-05-05 14:50 | 62.62538 | 6.72168 | 5417 ft | 201 kts | 330° |
| 2026-05-05 14:50 | 62.63809 | 6.70892 | 5209 ft | 201 kts | 330° |
| 2026-05-05 14:50 | 62.65054 | 6.69640 | 5125 ft | 195 kts | 330° |
| 2026-05-05 14:51 | 62.66261 | 6.68353 | 5045 ft | 191 kts | 319° |
| 2026-05-05 14:51 | 62.66977 | 6.66112 | 4936 ft | 183 kts | 275° |
| 2026-05-05 14:51 | 62.66792 | 6.63448 | 4821 ft | 180 kts | 255° |
| 2026-05-05 14:51 | 62.66482 | 6.60749 | 4558 ft | 184 kts | 253° |
| 2026-05-05 14:52 | 62.66117 | 6.58096 | 4274 ft | 182 kts | 252° |
| 2026-05-05 14:52 | 62.65717 | 6.55534 | 4064 ft | 177 kts | 248° |
| 2026-05-05 14:52 | 62.65245 | 6.53076 | 3883 ft | 176 kts | 245° |
| 2026-05-05 14:52 | 62.64732 | 6.50642 | 3663 ft | 176 kts | 244° |
| 2026-05-05 14:53 | 62.64221 | 6.48298 | 3440 ft | 168 kts | 244° |
| 2026-05-05 14:53 | 62.63718 | 6.46014 | 3255 ft | 168 kts | 244° |
| 2026-05-05 14:53 | 62.63208 | 6.43705 | 3071 ft | 170 kts | 244° |
| 2026-05-05 14:53 | 62.62701 | 6.41408 | 2840 ft | 169 kts | 244° |
| 2026-05-05 14:54 | 62.62207 | 6.39165 | 2629 ft | 161 kts | 243° |
| 2026-05-05 14:54 | 62.61887 | 6.37710 | 2521 ft | 154 kts | 244° |
| 2026-05-05 14:54 | 62.61428 | 6.35627 | 2300 ft | 149 kts | 243° |
| 2026-05-05 14:54 | 62.60981 | 6.33600 | 2116 ft | 146 kts | 243° |
| 2026-05-05 14:55 | 62.60417 | 6.31033 | 1846 ft | 140 kts | 244° |
| 2026-05-05 14:55 | 62.60134 | 6.29746 | 1720 ft | 140 kts | 244° |
| 2026-05-05 14:55 | 62.59718 | 6.27846 | 1549 ft | 139 kts | 243° |
| 2026-05-05 14:55 | 62.59316 | 6.26015 | 1458 ft | 131 kts | 243° |
| 2026-05-05 14:56 | 62.58916 | 6.24195 | 1260 ft | 135 kts | 243° |
| 2026-05-05 14:56 | 62.58530 | 6.22429 | 1060 ft | 125 kts | 242° |
| 2026-05-05 14:56 | 62.58171 | 6.20792 | 894 ft | 117 kts | 242° |
| 2026-05-05 14:56 | 62.57812 | 6.19154 | 755 ft | 124 kts | 243° |
| 2026-05-05 14:57 | 62.57441 | 6.17451 | 595 ft | 122 kts | 243° |
| 2026-05-05 14:57 | 62.57077 | 6.15791 | 393 ft | 120 kts | 243° |
| 2026-05-05 14:57 | 62.56742 | 6.14188 | 282 ft | 111 kts | 244° |
| 2026-05-05 14:57 | 62.56406 | 6.12672 | 99 ft | 111 kts | 244° |
| 2026-05-05 14:58 | 62.56117 | 6.11353 | 73 ft | 72 kts | 245° |
| 2026-05-05 14:58 | 62.56012 | 6.10872 | 68 ft | 14 kts | 246° |
| 2026-05-05 14:58 | 62.55953 | 6.10747 | 71 ft | 11 kts | 174° |
| 2026-05-05 14:58 | 62.55923 | 6.10798 | 71 ft | 3 kts | 112° |
| 2026-05-05 14:59 | 62.55920 | 6.10888 | 74 ft | 13 kts | 100° |
| 2026-05-05 14:59 | 62.55898 | 6.11097 | 65 ft | 12 kts | 86° |
| 2026-05-05 14:59 | 62.55928 | 6.11264 | 65 ft | 10 kts | 65° |
| 2026-05-05 14:59 | 62.55948 | 6.11352 | 71 ft | 6 kts | 65° |
| 2026-05-05 15:00 | 62.55936 | 6.11433 | 74 ft | 6 kts | 141° |
| 2026-05-05 15:00 | 62.55927 | 6.11446 | 66 ft | 0 kts | 147° |
| 2026-05-05 15:00 | 62.55921 | 6.11453 | 70 ft | 0 kts | 150° |
| 2026-05-05 15:00 | 62.55918 | 6.11457 | 71 ft | 0 kts | 151° |
| 2026-05-05 15:01 | 62.55915 | 6.11460 | 72 ft | 1 kts | 152° |
| 2026-05-05 15:01 | 62.55912 | 6.11464 | 70 ft | 1 kts | 153° |
| 2026-05-05 15:01 | 62.55911 | 6.11465 | 70 ft | 0 kts | 153° |